HBCYP EBBR-LSZA
Flight info
| Callsign | HBCYP |
|---|---|
| Flight time | N/A |
| Altitude | 33000 |
| Route | ROUSY4T/07L ROUSY DCT DEVDI DCT HOC L613 RIPUS N850 ODINA |
| Aircraft | C700/M-SBDGHM1RWXY/LB2 |
Departure
| Time | N/A |
|---|---|
| Airport | Brussels Airport (EBBR) |
Arrival
| Time | 2026-04-22 19:18 |
|---|---|
| Airport | Lugano Airport (LSZA) |
| Time | Latitude | Longitude | Altitude | Speed | Heading |
|---|---|---|---|---|---|
| 2026-04-22 18:56 | 47.46982 | 7.72598 | 33209 ft | 524 kts | 129° |
| 2026-04-22 18:57 | 47.43067 | 7.81628 | 33214 ft | 522 kts | 111° |
| 2026-04-22 18:57 | 47.40540 | 7.91656 | 33237 ft | 520 kts | 107° |
| 2026-04-22 18:58 | 47.38072 | 8.01668 | 33236 ft | 519 kts | 107° |
| 2026-04-22 18:58 | 47.35617 | 8.11639 | 33229 ft | 520 kts | 107° |
| 2026-04-22 18:59 | 47.33134 | 8.21642 | 33229 ft | 519 kts | 107° |
| 2026-04-22 18:59 | 47.30656 | 8.31600 | 33230 ft | 517 kts | 107° |
| 2026-04-22 19:00 | 47.27340 | 8.40980 | 33210 ft | 523 kts | 126° |
| 2026-04-22 19:00 | 47.24864 | 8.44840 | 33212 ft | 526 kts | 137° |
| 2026-04-22 19:00 | 47.21902 | 8.47991 | 33211 ft | 527 kts | 149° |
| 2026-04-22 19:01 | 47.18583 | 8.50264 | 33208 ft | 527 kts | 161° |
| 2026-04-22 19:01 | 47.15030 | 8.51576 | 33206 ft | 525 kts | 173° |
| 2026-04-22 19:01 | 47.07756 | 8.52661 | 33209 ft | 526 kts | 177° |
| 2026-04-22 19:02 | 47.00478 | 8.53709 | 33212 ft | 525 kts | 176° |
| 2026-04-22 19:02 | 46.93205 | 8.54763 | 33214 ft | 525 kts | 177° |
| 2026-04-22 19:03 | 46.85928 | 8.55803 | 33197 ft | 525 kts | 177° |
| 2026-04-22 19:03 | 46.78660 | 8.56851 | 33210 ft | 526 kts | 177° |
| 2026-04-22 19:04 | 46.71346 | 8.57892 | 33207 ft | 527 kts | 177° |
| 2026-04-22 19:04 | 46.64063 | 8.58935 | 33198 ft | 526 kts | 177° |
| 2026-04-22 19:05 | 46.56756 | 8.59972 | 33189 ft | 528 kts | 177° |
| 2026-04-22 19:05 | 46.53145 | 8.60484 | 32862 ft | 525 kts | 178° |
| 2026-04-22 19:05 | 46.49531 | 8.60999 | 31862 ft | 516 kts | 178° |
| 2026-04-22 19:06 | 46.45989 | 8.61502 | 30728 ft | 506 kts | 178° |
| 2026-04-22 19:06 | 46.42517 | 8.61989 | 29568 ft | 497 kts | 178° |
| 2026-04-22 19:06 | 46.39116 | 8.62468 | 28377 ft | 486 kts | 178° |
| 2026-04-22 19:07 | 46.32520 | 8.63398 | 26000 ft | 467 kts | 176° |
| 2026-04-22 19:07 | 46.29325 | 8.63849 | 24914 ft | 457 kts | 176° |
| 2026-04-22 19:07 | 46.26183 | 8.64287 | 23858 ft | 449 kts | 175° |
| 2026-04-22 19:07 | 46.23111 | 8.64717 | 22747 ft | 439 kts | 175° |
| 2026-04-22 19:08 | 46.20113 | 8.65139 | 21694 ft | 427 kts | 175° |
| 2026-04-22 19:08 | 46.17193 | 8.65638 | 20693 ft | 416 kts | 169° |
| 2026-04-22 19:08 | 46.14450 | 8.66784 | 19763 ft | 406 kts | 159° |
| 2026-04-22 19:08 | 46.11935 | 8.68542 | 18863 ft | 396 kts | 148° |
| 2026-04-22 19:09 | 46.09727 | 8.70811 | 17957 ft | 385 kts | 139° |
| 2026-04-22 19:09 | 46.07876 | 8.73453 | 17091 ft | 374 kts | 129° |
| 2026-04-22 19:09 | 46.06365 | 8.76428 | 16271 ft | 364 kts | 120° |
| 2026-04-22 19:09 | 46.05106 | 8.79525 | 15487 ft | 355 kts | 119° |
| 2026-04-22 19:10 | 46.03867 | 8.82500 | 15179 ft | 335 kts | 121° |
| 2026-04-22 19:10 | 46.02408 | 8.84974 | 14996 ft | 318 kts | 136° |
| 2026-04-22 19:10 | 46.00633 | 8.86790 | 14545 ft | 311 kts | 150° |
| 2026-04-22 19:10 | 45.98632 | 8.87927 | 14010 ft | 309 kts | 165° |
| 2026-04-22 19:11 | 45.96512 | 8.88347 | 13431 ft | 306 kts | 179° |
| 2026-04-22 19:11 | 45.94419 | 8.88054 | 12826 ft | 297 kts | 192° |
| 2026-04-22 19:11 | 45.92499 | 8.87093 | 12154 ft | 289 kts | 208° |
| 2026-04-22 19:11 | 45.90933 | 8.85393 | 11497 ft | 273 kts | 226° |
| 2026-04-22 19:12 | 45.89863 | 8.83276 | 10762 ft | 253 kts | 243° |
| 2026-04-22 19:12 | 45.89131 | 8.81036 | 10078 ft | 242 kts | 247° |
| 2026-04-22 19:12 | 45.88375 | 8.78924 | 9326 ft | 235 kts | 238° |
| 2026-04-22 19:12 | 45.87166 | 8.77557 | 8536 ft | 221 kts | 199° |
| 2026-04-22 19:13 | 45.85714 | 8.77589 | 8161 ft | 195 kts | 164° |
| 2026-04-22 19:13 | 45.84621 | 8.78534 | 7836 ft | 186 kts | 133° |
| 2026-04-22 19:13 | 45.83994 | 8.80116 | 7496 ft | 182 kts | 103° |
| 2026-04-22 19:13 | 45.83981 | 8.81883 | 7164 ft | 176 kts | 75° |
| 2026-04-22 19:14 | 45.84533 | 8.83406 | 6825 ft | 171 kts | 47° |
| 2026-04-22 19:14 | 45.85486 | 8.84367 | 6516 ft | 167 kts | 20° |
| 2026-04-22 19:14 | 45.86614 | 8.84686 | 6195 ft | 164 kts | 5° |
| 2026-04-22 19:14 | 45.87724 | 8.84976 | 5883 ft | 163 kts | 14° |
| 2026-04-22 19:15 | 45.88433 | 8.85314 | 5684 ft | 161 kts | 18° |
| 2026-04-22 19:15 | 45.89860 | 8.85953 | 5281 ft | 160 kts | 15° |
| 2026-04-22 19:15 | 45.90918 | 8.86415 | 4978 ft | 155 kts | 17° |
| 2026-04-22 19:15 | 45.91904 | 8.86917 | 4506 ft | 144 kts | 19° |
| 2026-04-22 19:16 | 45.92820 | 8.87350 | 4124 ft | 136 kts | 18° |
| 2026-04-22 19:16 | 45.93740 | 8.87790 | 3661 ft | 138 kts | 19° |
| 2026-04-22 19:16 | 45.94637 | 8.88228 | 3317 ft | 137 kts | 19° |
| 2026-04-22 19:16 | 45.95505 | 8.88637 | 3108 ft | 126 kts | 18° |
| 2026-04-22 19:17 | 45.96356 | 8.89023 | 2649 ft | 127 kts | 19° |
| 2026-04-22 19:17 | 45.97181 | 8.89452 | 2220 ft | 127 kts | 19° |
| 2026-04-22 19:17 | 45.98003 | 8.89862 | 1829 ft | 126 kts | 20° |
| 2026-04-22 19:17 | 45.98819 | 8.90264 | 1433 ft | 122 kts | 20° |
| 2026-04-22 19:18 | 45.99604 | 8.90663 | 1068 ft | 117 kts | 20° |
| 2026-04-22 19:18 | 46.00309 | 8.91005 | 919 ft | 65 kts | 18° |
| 2026-04-22 19:18 | 46.00437 | 8.91051 | 919 ft | 9 kts | 330° |
| 2026-04-22 19:18 | 46.00457 | 8.90974 | 918 ft | 5 kts | 266° |
| 2026-04-22 19:19 | 46.00423 | 8.90945 | 918 ft | 8 kts | 197° |
| 2026-04-22 19:19 | 46.00365 | 8.90908 | 921 ft | 11 kts | 228° |
| 2026-04-22 19:19 | 46.00365 | 8.90837 | 921 ft | 5 kts | 269° |
| 2026-04-22 19:19 | 46.00353 | 8.90812 | 918 ft | 0 kts | 208° |